Eurodam — PHOS — position and weather

sailwx.info

Track history (hours):
 
Tides and Currents Weather Stations Pressure Air Temp Water Temp Dewpoint Dewpoint Depression Visibility Wind Speed Wind Dir Waves Ship Positions

Eurodam (Netherlands)

Last reported at 2016-Jul-29 01:31 UTC. Time now 2016-Jul-29 01:59 UTC.
Position N 45°17' E 012°33'.

Length 285 m; draft 8 m.

Type: Ship. MMSI: 245206000.

Date/timePositionNaut miles runAvg speedWind from/ knotsBaromVisibWave heightAir tempDewpointWater temp
2016-Jul-29 01:31N 45°17' E 012°33'1110.9
2016-Jul-29 00:33N 45°10' E 012°44'1111.4
2016-Jul-28 23:33N 45°01' E 012°53'3717.2
2016-Jul-28 21:24N 44°26' E 013°11'3715.3
2016-Jul-28 19:00N 43°54' E 013°36'3521.5 160 / 201014.110.8 0.524.019.724.0
2016-Jul-28 17:22N 43°40' E 014°20'1026.4
2016-Jul-28 17:00N 43°30' E 014°24'24517.0 170 / 101014.110.8 0.528.023.424.5
2016-Jul-28 02:31N 40°43' E 018°26'3316.4
2016-Jul-28 00:31N 40°15' E 018°49'7817.2
2016-Jul-27 20:00N 39°06' E 019°36'5317.8 190 / 101012.010.8 0.528.021.8
2016-Jul-27 17:00N 38°18' E 020°06'   150 / 91012.010.8 0.528.021.8
2016-Jul-24 19:00N 36°12' E 027°12'90 3.7 090 / 351005.010.8 0.525.921.124.0
2016-Jul-23 18:21N 37°15' E 025°52'1713.7
2016-Jul-23 17:05N 37°28' E 025°38'783.5
2016-Jul-23 17:00N 37°24' E 025°30'613.9 050 / 161010.810.8 0.524.919.723.0
2016-Jul-23 16:33N 37°30' E 025°29'8 8.1
2016-Jul-23 15:33N 37°27' E 025°19'0 0.3
2016-Jul-23 14:31N 37°27' E 025°19'0 0.0
2016-Jul-23 13:28N 37°27' E 025°19'0 0.0
2016-Jul-23 12:31N 37°27' E 025°19'0 0.0
2016-Jul-23 11:31N 37°27' E 025°19'0 0.0
2016-Jul-23 10:31N 37°27' E 025°19'0 0.0
2016-Jul-23 09:31N 37°27' E 025°19'0 0.0
2016-Jul-23 08:31N 37°27' E 025°19'0 0.0
2016-Jul-23 07:31N 37°27' E 025°19'0 0.0
2016-Jul-23 06:31N 37°27' E 025°19'0 0.0
2016-Jul-23 04:31N 37°27' E 025°19'5 5.7
2016-Jul-23 03:33N 37°29' E 025°13'1313.3
2016-Jul-23 02:33N 37°32' E 024°57'1313.1
2016-Jul-23 01:33N 37°32' E 024°40'1613.8
2016-Jul-23 00:23N 37°29' E 024°20'1113.6
2016-Jul-22 23:34N 37°30' E 024°06'1413.7
2016-Jul-22 22:33N 37°35' E 023°50'8 7.9
2016-Jul-22 21:33N 37°40' E 023°42'1312.9
2016-Jul-22 20:33N 37°52' E 023°37'5 4.5
2016-Jul-22 19:32N 37°56' E 023°38'0 0.0
2016-Jul-22 18:32N 37°56' E 023°38'0 0.0
2016-Jul-22 17:32N 37°56' E 023°38'0 0.0
2016-Jul-22 16:32N 37°56' E 023°38'0 0.0
2016-Jul-22 15:32N 37°56' E 023°38'0 0.0
2016-Jul-22 14:32N 37°56' E 023°38'0 0.0
2016-Jul-22 13:32N 37°56' E 023°38'0 0.0
2016-Jul-22 12:32N 37°56' E 023°38'0 0.0
2016-Jul-22 11:32N 37°56' E 023°38'0 0.0
2016-Jul-22 10:32N 37°56' E 023°38'0 0.0
2016-Jul-22 09:32N 37°56' E 023°38'0 0.0
2016-Jul-22 08:32N 37°56' E 023°38'0 0.0
2016-Jul-22 07:32N 37°56' E 023°38'0 0.0
2016-Jul-22 04:32N 37°56' E 023°38'0 0.0
2016-Jul-22 03:32N 37°56' E 023°38'0 0.0
2016-Jul-22 02:32N 37°56' E 023°38'1 1.4
2016-Jul-22 01:33N 37°56' E 023°36'1414.3
2016-Jul-22 00:33N 37°43' E 023°44'1717.3
2016-Jul-21 23:33N 37°26' E 023°50'1717.4
2016-Jul-21 22:33N 37°09' E 023°48'1918.5
2016-Jul-21 21:33N 36°53' E 023°37'217 7.9
2016-Jul-20 18:00N 39°18' E 020°12'165 6.9 360 / 111011.710.8 0.527.117.321.8
2016-Jul-19 18:00N 41°12' E 017°36'   070 / 131014.910.8 0.525.0 23.3
Track history (hours):
 
Tides and Currents Weather Stations Pressure Air Temp Water Temp Dewpoint Dewpoint Depression Visibility Wind Speed Wind Dir Waves Ship Positions

Eurodam (Netherlands)

Last reported at 2016-Jul-29 01:31 UTC. Time now 2016-Jul-29 01:59 UTC.
Position N 45°17' E 012°33'.

Length 285 m; draft 8 m.

Type: Ship. MMSI: 245206000.

Date/timePositionNaut miles runAvg speedWind from/ knotsBaromVisibWave heightAir tempDewpointWater temp
2016-Jul-29 01:31N 45°17' E 012°33'1110.9
2016-Jul-29 00:33N 45°10' E 012°44'1111.4
2016-Jul-28 23:33N 45°01' E 012°53'3717.2
2016-Jul-28 21:24N 44°26' E 013°11'3715.3
2016-Jul-28 19:00N 43°54' E 013°36'3521.5 160 / 201014.110.8 0.524.019.724.0
2016-Jul-28 17:22N 43°40' E 014°20'1026.4
2016-Jul-28 17:00N 43°30' E 014°24'24517.0 170 / 101014.110.8 0.528.023.424.5
2016-Jul-28 02:31N 40°43' E 018°26'3316.4
2016-Jul-28 00:31N 40°15' E 018°49'7817.2
2016-Jul-27 20:00N 39°06' E 019°36'5317.8 190 / 101012.010.8 0.528.021.8
2016-Jul-27 17:00N 38°18' E 020°06'   150 / 91012.010.8 0.528.021.8
2016-Jul-24 19:00N 36°12' E 027°12'90 3.7 090 / 351005.010.8 0.525.921.124.0
2016-Jul-23 18:21N 37°15' E 025°52'1713.7
2016-Jul-23 17:05N 37°28' E 025°38'783.5
2016-Jul-23 17:00N 37°24' E 025°30'613.9 050 / 161010.810.8 0.524.919.723.0
2016-Jul-23 16:33N 37°30' E 025°29'8 8.1
2016-Jul-23 15:33N 37°27' E 025°19'0 0.3
2016-Jul-23 14:31N 37°27' E 025°19'0 0.0
2016-Jul-23 13:28N 37°27' E 025°19'0 0.0
2016-Jul-23 12:31N 37°27' E 025°19'0 0.0
2016-Jul-23 11:31N 37°27' E 025°19'0 0.0
2016-Jul-23 10:31N 37°27' E 025°19'0 0.0
2016-Jul-23 09:31N 37°27' E 025°19'0 0.0
2016-Jul-23 08:31N 37°27' E 025°19'0 0.0
2016-Jul-23 07:31N 37°27' E 025°19'0 0.0
2016-Jul-23 06:31N 37°27' E 025°19'0 0.0
2016-Jul-23 04:31N 37°27' E 025°19'5 5.7
2016-Jul-23 03:33N 37°29' E 025°13'1313.3
2016-Jul-23 02:33N 37°32' E 024°57'1313.1
2016-Jul-23 01:33N 37°32' E 024°40'1613.8
2016-Jul-23 00:23N 37°29' E 024°20'1113.6
2016-Jul-22 23:34N 37°30' E 024°06'1413.7
2016-Jul-22 22:33N 37°35' E 023°50'8 7.9
2016-Jul-22 21:33N 37°40' E 023°42'1312.9
2016-Jul-22 20:33N 37°52' E 023°37'5 4.5
2016-Jul-22 19:32N 37°56' E 023°38'0 0.0
2016-Jul-22 18:32N 37°56' E 023°38'0 0.0
2016-Jul-22 17:32N 37°56' E 023°38'0 0.0
2016-Jul-22 16:32N 37°56' E 023°38'0 0.0
2016-Jul-22 15:32N 37°56' E 023°38'0 0.0
2016-Jul-22 14:32N 37°56' E 023°38'0 0.0
2016-Jul-22 13:32N 37°56' E 023°38'0 0.0
2016-Jul-22 12:32N 37°56' E 023°38'0 0.0
2016-Jul-22 11:32N 37°56' E 023°38'0 0.0
2016-Jul-22 10:32N 37°56' E 023°38'0 0.0
2016-Jul-22 09:32N 37°56' E 023°38'0 0.0
2016-Jul-22 08:32N 37°56' E 023°38'0 0.0
2016-Jul-22 07:32N 37°56' E 023°38'0 0.0
2016-Jul-22 04:32N 37°56' E 023°38'0 0.0
2016-Jul-22 03:32N 37°56' E 023°38'0 0.0
2016-Jul-22 02:32N 37°56' E 023°38'1 1.4
2016-Jul-22 01:33N 37°56' E 023°36'1414.3
2016-Jul-22 00:33N 37°43' E 023°44'1717.3
2016-Jul-21 23:33N 37°26' E 023°50'1717.4
2016-Jul-21 22:33N 37°09' E 023°48'1918.5
2016-Jul-21 21:33N 36°53' E 023°37'217 7.9
2016-Jul-20 18:00N 39°18' E 020°12'165 6.9 360 / 111011.710.8 0.527.117.321.8
2016-Jul-19 18:00N 41°12' E 017°36'   070 / 131014.910.8 0.525.0 23.3

Dump ship's entire track history